Dane County Regional Truax Field
KMSN : now visible

Airfield :











YOU CAN JOIN US ON...

 
LOGIN :

Register | Disclaimer

   EN    FR    IT 

 









Legend :    VFR   Marginal VFR   IFR   Intensive IFR   Very Intensive IFR
Visi :
Ceiling :
>= 8 km
>= 3000ft
5 to 8 km
1000 to 3000 ft
1500m to 5 km
500 to 1000 ft
800 to 1500m
200 to 500 ft
< 800m
< 200 ft
Symbols :   Thunderstorms  Fog  Heavy snow  Heavy precipitations  Wind > 20 kt






- Airport Elevation : 887 ft
- IATA code : MSN


KMSN - Dane County Regional Truax Field

CURRENT METAR :
  • 070353Z 00000KT 1/4SM R36/1600FT FG VV002 00/M01 A3008 RMK AO2 SLP196 T00001006

EXPIRED METARs :
  • 070320Z 10003KT 1/4SM R36/2000V2800FT FG VV002 00/M01 A3008 RMK AO2 TWR VIS 1/2 T00001006
  • 070253Z 00000KT 1/2SM R36/3000V5000FT FG VV002 00/M01 A3008 RMK AO2 SLP196 T00001006 51021
  • 070229Z 00000KT 3/4SM R36/4000VP6000FT BR OVC002 01/M01 A3007 RMK AO2 T00061006
  • 070213Z 33003KT 1SM R36/5500VP6000FT BR OVC002 00/M01 A3007 RMK AO2 T00001006
  • 070153Z 01003KT 2SM BR OVC003 01/M01 A3006 RMK AO2 SLP192 T00061006
  • 070136Z 01004KT 2 1/2SM BR OVC003 01/M01 A3006 RMK AO2 T00061006

TAF KMSN
Valid from the 07 at 02:00 until the 08 at 00:00 UTC


070224Z 0702/0724 VRB03KT 1SM BR BKN003
FM070800 00000KT 2SM BR BKN005
FM071500 VRB04KT P6SM BKN006
FM072000 33004KT P6SM BKN060
KZAU FIR / North America



MET'MAP, your aeronautical weather chart ! - Copyright ORBIFLY December 2007 - Disclaimer

ORBIFLY MET'MAP TEAM :

Programming & Development : Alexandra Zaïnal
Original concept : Baudouin d'Aumeries
Technical & hardware support : Manuel Goepfert
Assistance : Marc-Olivier Méhu




SOURCES & CREDITS :

   NOAA       Earth
Advisory